createdAt,value
2015-06-15T00:00:04.473Z,15.7
2015-06-15T00:00:23.083Z,15.7
2015-06-15T00:00:41.552Z,15.7
2015-06-15T00:01:01.289Z,15.7
2015-06-15T00:01:19.898Z,15.7
2015-06-15T00:01:38.430Z,15.7
2015-06-15T00:01:57.057Z,15.7
2015-06-15T00:02:15.744Z,15.7
2015-06-15T00:02:34.307Z,15.7
2015-06-15T00:02:52.885Z,15.8
2015-06-15T00:03:11.480Z,15.7
2015-06-15T00:03:29.902Z,15.7
2015-06-15T00:03:48.371Z,15.7
2015-06-15T00:04:06.796Z,15.7
2015-06-15T00:04:25.218Z,15.7
2015-06-15T00:04:43.640Z,15.7
2015-06-15T00:05:02.171Z,15.7
2015-06-15T00:05:20.768Z,15.8
2015-06-15T00:05:39.408Z,15.8
2015-06-15T00:05:57.971Z,15.8
2015-06-15T00:06:16.676Z,15.8
2015-06-15T00:06:34.520Z,15.9
2015-06-15T00:06:53.160Z,15.8
2015-06-15T00:07:11.629Z,15.9
2015-06-15T00:07:30.162Z,15.9
2015-06-15T00:07:48.694Z,15.9
2015-06-15T00:08:07.162Z,15.9
2015-06-15T00:08:25.556Z,15.9
2015-06-15T00:08:44.165Z,16
2015-06-15T00:09:02.947Z,16
2015-06-15T00:09:21.337Z,16
2015-06-15T00:09:39.761Z,16
2015-06-15T00:09:58.183Z,16
2015-06-15T00:10:16.714Z,16
2015-06-15T00:10:35.107Z,16.1
2015-06-15T00:10:53.497Z,16
2015-06-15T00:11:11.919Z,16
2015-06-15T00:11:30.388Z,16
2015-06-15T00:11:48.860Z,16
2015-06-15T00:12:07.704Z,16.1
2015-06-15T00:12:26.204Z,16.1
2015-06-15T00:12:44.832Z,16.1
2015-06-15T00:13:03.378Z,16
2015-06-15T00:13:21.910Z,16
2015-06-15T00:13:40.488Z,16.1
2015-06-15T00:13:59.084Z,16.1
2015-06-15T00:14:17.693Z,16.2
2015-06-15T00:14:36.130Z,16.2
2015-06-15T00:14:54.742Z,16.2
2015-06-15T00:15:13.226Z,16.2
2015-06-15T00:15:31.836Z,16.1
2015-06-15T00:15:50.257Z,16.1
2015-06-15T00:16:09.011Z,16.1
2015-06-15T00:16:27.402Z,16.2
2015-06-15T00:16:45.965Z,16.2
2015-06-15T00:17:04.482Z,16.2
2015-06-15T00:17:22.998Z,16.1
2015-06-15T00:17:41.545Z,16.2
2015-06-15T00:18:00.107Z,16.2
2015-06-15T00:18:18.609Z,16.2
2015-06-15T00:18:37.015Z,16.2
2015-06-15T00:18:55.297Z,16.2
2015-06-15T00:19:13.815Z,16.3
2015-06-15T00:19:32.315Z,16.3
2015-06-15T00:19:50.737Z,16.3
2015-06-15T00:20:09.222Z,16.3
2015-06-15T00:20:27.834Z,16.3
2015-06-15T00:20:46.225Z,16.3
2015-06-15T00:21:04.787Z,16.3
2015-06-15T00:21:23.320Z,16.4
2015-06-15T00:21:41.727Z,16.4
2015-06-15T00:22:00.445Z,16.4
2015-06-15T00:22:18.930Z,16.2
2015-06-15T00:22:37.386Z,16.3
2015-06-15T00:22:55.901Z,16.2
2015-06-15T00:23:14.620Z,16.2
2015-06-15T00:23:33.232Z,16.2
2015-06-15T00:23:51.716Z,16.2
2015-06-15T00:24:10.122Z,16.2
2015-06-15T00:24:28.685Z,16.3
2015-06-15T00:24:47.140Z,16.3
2015-06-15T00:25:05.702Z,16.2
2015-06-15T00:25:23.499Z,16.1
2015-06-15T00:25:42.112Z,16.1
2015-06-15T00:26:00.549Z,16.2
2015-06-15T00:26:19.018Z,16.3
2015-06-15T00:26:37.658Z,16.2
2015-06-15T00:26:56.098Z,16.3
2015-06-15T00:27:14.785Z,16.3
2015-06-15T00:27:33.317Z,16.4
2015-06-15T00:27:51.742Z,16.4
2015-06-15T00:28:10.351Z,16.3
2015-06-15T00:28:28.851Z,16.4
2015-06-15T00:28:47.320Z,16.4
2015-06-15T00:29:06.009Z,16.4
2015-06-15T00:29:24.587Z,16.4
2015-06-15T00:29:43.384Z,16.4
2015-06-15T00:30:01.809Z,16.3
2015-06-15T00:30:20.293Z,16.4
2015-06-15T00:30:38.887Z,16.4
2015-06-15T00:30:57.450Z,16.4
2015-06-15T00:31:15.874Z,16.4
2015-06-15T00:31:34.342Z,16.4
2015-06-15T00:31:53.045Z,16.4
2015-06-15T00:32:11.470Z,16.4
2015-06-15T00:32:29.923Z,16.3
2015-06-15T00:32:48.330Z,16.3
2015-06-15T00:33:06.783Z,16.3
2015-06-15T00:33:25.207Z,16.3
2015-06-15T00:33:43.832Z,16.3
2015-06-15T00:34:02.332Z,16.3
2015-06-15T00:34:20.913Z,16.3
2015-06-15T00:34:39.335Z,16.4
2015-06-15T00:34:57.819Z,16.4
2015-06-15T00:35:16.366Z,16.4
2015-06-15T00:35:34.962Z,16.4
2015-06-15T00:35:53.743Z,16.4
2015-06-15T00:36:12.212Z,16.5
2015-06-15T00:36:30.840Z,16.5
2015-06-15T00:36:49.340Z,16.4
2015-06-15T00:37:08.012Z,16.5
2015-06-15T00:37:26.543Z,16.6
2015-06-15T00:37:45.201Z,16.5
2015-06-15T00:38:03.639Z,16.5
2015-06-15T00:38:22.201Z,16.4
2015-06-15T00:38:40.767Z,16.4
2015-06-15T00:38:59.173Z,16.5
2015-06-15T00:39:17.610Z,16.5
2015-06-15T00:39:36.048Z,16.5
2015-06-15T00:39:54.644Z,16.4
2015-06-15T00:40:13.394Z,16.4
2015-06-15T00:40:31.972Z,16.4
2015-06-15T00:40:50.397Z,16.5
2015-06-15T00:41:08.975Z,16.5
2015-06-15T00:41:27.584Z,16.5
2015-06-15T00:41:46.053Z,16.6
2015-06-15T00:42:04.570Z,16.5
2015-06-15T00:42:23.164Z,16.5
2015-06-15T00:42:41.680Z,16.5
2015-06-15T00:43:00.271Z,16.5
2015-06-15T00:43:18.818Z,16.5
2015-06-15T00:43:37.412Z,16.5
2015-06-15T00:43:55.927Z,16.5
2015-06-15T00:44:14.739Z,16.5
2015-06-15T00:44:33.177Z,16.5
2015-06-15T00:44:51.692Z,16.6
2015-06-15T00:45:10.131Z,16.5
2015-06-15T00:45:28.772Z,16.6
2015-06-15T00:45:47.287Z,16.6
2015-06-15T00:46:05.678Z,16.6
2015-06-15T00:46:24.444Z,16.6
2015-06-15T00:46:43.694Z,16.5
2015-06-15T00:47:02.163Z,16.5
2015-06-15T00:47:20.585Z,16.5
2015-06-15T00:47:39.022Z,16.5
2015-06-15T00:47:57.429Z,16.5
2015-06-15T00:48:15.866Z,16.5
2015-06-15T00:48:34.420Z,16.5
2015-06-15T00:48:53.014Z,16.4
2015-06-15T00:49:11.420Z,16.4
2015-06-15T00:49:29.833Z,16.5
2015-06-15T00:49:48.677Z,16.5
2015-06-15T00:50:07.302Z,16.6
2015-06-15T00:50:25.865Z,16.5
2015-06-15T00:50:44.386Z,16.5
2015-06-15T00:51:02.839Z,16.5
2015-06-15T00:51:21.230Z,16.5
2015-06-15T00:51:39.878Z,16.4
2015-06-15T00:51:58.253Z,16.4
2015-06-15T00:52:16.690Z,16.4
2015-06-15T00:52:35.096Z,16.4
2015-06-15T00:52:53.494Z,16.5
2015-06-15T00:53:12.119Z,16.4
2015-06-15T00:53:30.885Z,16.4
2015-06-15T00:53:49.278Z,16.5
2015-06-15T00:54:07.825Z,16.5
2015-06-15T00:54:26.216Z,16.5
2015-06-15T00:54:44.856Z,16.4
2015-06-15T00:55:03.346Z,16.4
2015-06-15T00:55:22.002Z,16.4
2015-06-15T00:55:40.439Z,16.4
2015-06-15T00:55:58.975Z,16.4
2015-06-15T00:56:17.381Z,16.4
2015-06-15T00:56:35.959Z,16.4
2015-06-15T00:56:54.365Z,16.5
2015-06-15T00:57:13.118Z,16.5
2015-06-15T00:57:31.587Z,16.6
2015-06-15T00:57:50.040Z,16.5
2015-06-15T00:58:08.497Z,16.5
2015-06-15T00:58:27.075Z,16.5
2015-06-15T00:58:45.497Z,16.5
2015-06-15T00:59:03.919Z,16.5
2015-06-15T00:59:22.407Z,16.5
2015-06-15T00:59:41.000Z,16.5
2015-06-15T00:59:59.391Z,16.5
2015-06-15T01:00:17.895Z,16.5
2015-06-15T01:00:36.317Z,16.5
2015-06-15T01:00:54.864Z,16.4
2015-06-15T01:01:13.286Z,16.4
2015-06-15T01:01:31.679Z,16.4
2015-06-15T01:01:50.070Z,16.4
2015-06-15T01:02:08.632Z,16.3
2015-06-15T01:02:27.089Z,16.3
2015-06-15T01:02:45.589Z,16.4
2015-06-15T01:03:04.074Z,16.4
2015-06-15T01:03:22.699Z,16.4
2015-06-15T01:03:41.091Z,16.4
2015-06-15T01:03:59.529Z,16.4
2015-06-15T01:04:18.232Z,16.4
2015-06-15T01:04:36.657Z,16.4
2015-06-15T01:04:55.126Z,16.4
2015-06-15T01:05:13.891Z,16.4
2015-06-15T01:05:32.313Z,16.5
2015-06-15T01:05:50.894Z,16.5
2015-06-15T01:06:09.457Z,16.5
2015-06-15T01:06:27.894Z,16.5
2015-06-15T01:06:46.444Z,16.5
2015-06-15T01:07:05.132Z,16.5
2015-06-15T01:07:23.507Z,16.4
2015-06-15T01:07:41.897Z,16.5
2015-06-15T01:08:00.385Z,16.6
2015-06-15T01:08:18.775Z,16.6
2015-06-15T01:08:37.369Z,16.5
2015-06-15T01:08:55.949Z,16.6
2015-06-15T01:09:14.371Z,16.6
2015-06-15T01:09:32.902Z,16.6
2015-06-15T01:09:51.449Z,16.6
2015-06-15T01:10:09.998Z,16.5
2015-06-15T01:10:28.451Z,16.5
2015-06-15T01:10:47.061Z,16.5
2015-06-15T01:11:05.518Z,16.4
2015-06-15T01:11:23.971Z,16.5
2015-06-15T01:11:42.424Z,16.4
2015-06-15T01:12:01.096Z,16.5
2015-06-15T01:12:19.753Z,16.5
2015-06-15T01:12:38.628Z,16.5
2015-06-15T01:12:57.081Z,16.4
2015-06-15T01:13:15.662Z,16.4
2015-06-15T01:13:34.162Z,16.5
2015-06-15T01:13:52.553Z,16.4
2015-06-15T01:14:10.959Z,16.5
2015-06-15T01:14:29.431Z,16.4
2015-06-15T01:14:48.197Z,16.4
2015-06-15T01:15:06.650Z,16.4
2015-06-15T01:15:25.183Z,16.4
2015-06-15T01:15:43.777Z,16.4
2015-06-15T01:16:02.230Z,16.4
2015-06-15T01:16:20.933Z,16.4
2015-06-15T01:16:39.436Z,16.4
2015-06-15T01:16:57.998Z,16.4
2015-06-15T01:17:16.405Z,16.4
2015-06-15T01:17:34.797Z,16.4
2015-06-15T01:17:53.500Z,16.4
2015-06-15T01:18:11.891Z,16.4
2015-06-15T01:18:30.500Z,16.4
2015-06-15T01:18:48.909Z,16.4
2015-06-15T01:19:07.456Z,16.4
2015-06-15T01:19:25.831Z,16.4
2015-06-15T01:19:44.224Z,16.4
2015-06-15T01:20:02.599Z,16.4
2015-06-15T01:20:20.990Z,16.4
2015-06-15T01:20:39.459Z,16.4
2015-06-15T01:20:58.055Z,16.5
2015-06-15T01:21:16.462Z,16.4
2015-06-15T01:21:34.930Z,16.4
2015-06-15T01:21:53.323Z,16.4
2015-06-15T01:22:11.745Z,16.4
2015-06-15T01:22:30.245Z,16.4
2015-06-15T01:22:48.776Z,16.4
2015-06-15T01:23:07.169Z,16.3
2015-06-15T01:23:25.544Z,16.4
2015-06-15T01:23:44.153Z,16.4
2015-06-15T01:24:02.765Z,16.4
2015-06-15T01:24:21.375Z,16.3
2015-06-15T01:24:39.765Z,16.4
2015-06-15T01:24:58.437Z,16.4
2015-06-15T01:25:16.878Z,16.4
2015-06-15T01:25:35.409Z,16.4
2015-06-15T01:25:53.847Z,16.4
2015-06-15T01:26:12.130Z,16.4
2015-06-15T01:26:30.755Z,16.4
2015-06-15T01:26:49.349Z,16.4
2015-06-15T01:27:07.786Z,16.4
2015-06-15T01:27:26.366Z,16.4
2015-06-15T01:27:45.069Z,16.5
2015-06-15T01:28:03.726Z,16.4
2015-06-15T01:28:22.291Z,16.4
2015-06-15T01:28:40.854Z,16.4
2015-06-15T01:28:59.322Z,16.4
2015-06-15T01:29:17.760Z,16.3
2015-06-15T01:29:36.278Z,16.3
2015-06-15T01:29:54.653Z,16.4
2015-06-15T01:30:13.091Z,16.4
2015-06-15T01:30:31.562Z,16.5
2015-06-15T01:30:50.202Z,16.5
2015-06-15T01:31:08.796Z,16.5
2015-06-15T01:31:27.265Z,16.5
2015-06-15T01:31:45.689Z,16.5
2015-06-15T01:32:04.236Z,16.5
2015-06-15T01:32:22.814Z,16.5
2015-06-15T01:32:41.223Z,16.5
2015-06-15T01:32:59.614Z,16.5
2015-06-15T01:33:18.051Z,16.5
2015-06-15T01:33:36.473Z,16.5
2015-06-15T01:33:54.976Z,16.4
2015-06-15T01:34:13.413Z,16.4
2015-06-15T01:34:31.804Z,16.5
2015-06-15T01:34:50.290Z,16.5
2015-06-15T01:35:09.072Z,16.5
2015-06-15T01:35:27.525Z,16.5
2015-06-15T01:35:45.915Z,16.5
2015-06-15T01:36:04.528Z,16.4
2015-06-15T01:36:22.918Z,16.4
2015-06-15T01:36:41.325Z,16.3
2015-06-15T01:36:59.795Z,16.3
2015-06-15T01:37:18.249Z,16.3
2015-06-15T01:37:36.717Z,16.2
2015-06-15T01:37:55.405Z,16.2
2015-06-15T01:38:13.797Z,16.3
2015-06-15T01:38:31.782Z,16.4
2015-06-15T01:38:50.219Z,16.4
2015-06-15T01:39:08.784Z,16.4
2015-06-15T01:39:27.221Z,16.5
2015-06-15T01:39:45.612Z,16.5
2015-06-15T01:40:04.081Z,16.5
2015-06-15T01:40:22.616Z,16.5
2015-06-15T01:40:41.053Z,16.4
2015-06-15T01:40:59.538Z,16.4
2015-06-15T01:41:18.055Z,16.5
2015-06-15T01:41:36.493Z,16.5
2015-06-15T01:41:55.227Z,16.4
2015-06-15T01:42:13.805Z,16.4
2015-06-15T01:42:32.198Z,16.5
2015-06-15T01:42:50.667Z,16.5
2015-06-15T01:43:09.167Z,16.5
2015-06-15T01:43:27.794Z,16.4
2015-06-15T01:43:46.403Z,16.4
2015-06-15T01:44:04.966Z,16.4
2015-06-15T01:44:23.450Z,16.3
2015-06-15T01:44:41.985Z,16.3
2015-06-15T01:45:00.407Z,16.3
2015-06-15T01:45:19.001Z,16.3
2015-06-15T01:45:37.408Z,16.3
2015-06-15T01:45:56.330Z,16.3
2015-06-15T01:46:14.908Z,16.3
2015-06-15T01:46:33.361Z,16.3
2015-06-15T01:46:51.771Z,16.2
2015-06-15T01:47:10.302Z,16.3
2015-06-15T01:47:28.724Z,16.3
2015-06-15T01:47:47.241Z,16.3
2015-06-15T01:48:05.710Z,16.3
2015-06-15T01:48:24.116Z,16.3
2015-06-15T01:48:42.616Z,16.4
2015-06-15T01:49:01.073Z,16.4
2015-06-15T01:49:19.464Z,16.4
2015-06-15T01:49:37.886Z,16.4
2015-06-15T01:49:56.387Z,16.4
2015-06-15T01:50:14.778Z,16.4
2015-06-15T01:50:33.324Z,16.4
2015-06-15T01:50:51.981Z,16.4
2015-06-15T01:51:10.577Z,16.4
2015-06-15T01:51:29.343Z,16.4
2015-06-15T01:51:47.781Z,16.3
2015-06-15T01:52:06.409Z,16.2
2015-06-15T01:52:24.924Z,16.3
2015-06-15T01:52:43.518Z,16.4
2015-06-15T01:53:01.924Z,16.4
2015-06-15T01:53:20.317Z,16.4
2015-06-15T01:53:38.770Z,16.4
2015-06-15T01:53:57.192Z,16.5
2015-06-15T01:54:15.601Z,16.5
2015-06-15T01:54:34.195Z,16.5
2015-06-15T01:54:52.710Z,16.4
2015-06-15T01:55:11.101Z,16.4
2015-06-15T01:55:29.791Z,16.4
2015-06-15T01:55:48.228Z,16.4
2015-06-15T01:56:06.681Z,16.4
2015-06-15T01:56:25.325Z,16.3
2015-06-15T01:56:43.747Z,16.3
2015-06-15T01:57:02.184Z,16.3
2015-06-15T01:57:20.637Z,16.3
2015-06-15T01:57:39.061Z,16.3
2015-06-15T01:57:57.577Z,16.3
2015-06-15T01:58:16.077Z,16.3
2015-06-15T01:58:34.549Z,16.3
2015-06-15T01:58:52.970Z,16.2
2015-06-15T01:59:11.392Z,16.3
2015-06-15T01:59:29.970Z,16.3
2015-06-15T01:59:48.582Z,16.3
2015-06-15T02:00:06.988Z,16.3
2015-06-15T02:00:25.472Z,16.3
2015-06-15T02:00:43.897Z,16.3
2015-06-15T02:01:02.507Z,16.3
2015-06-15T02:01:21.179Z,16.3
2015-06-15T02:01:39.710Z,16.3
2015-06-15T02:01:58.321Z,16.2
2015-06-15T02:02:16.743Z,16.2
2015-06-15T02:02:35.274Z,16.2
2015-06-15T02:02:53.824Z,16.3
2015-06-15T02:03:12.309Z,16.2
2015-06-15T02:03:30.715Z,16.2
2015-06-15T02:03:49.105Z,16.2
2015-06-15T02:04:07.670Z,16.2
2015-06-15T02:04:26.311Z,16.2
2015-06-15T02:04:44.811Z,16.2
2015-06-15T02:05:03.531Z,16.1
2015-06-15T02:05:22.141Z,16.2
2015-06-15T02:05:40.672Z,16.2
2015-06-15T02:05:59.203Z,16.3
2015-06-15T02:06:17.628Z,16.3
2015-06-15T02:06:36.284Z,16.2
2015-06-15T02:06:54.878Z,16.2
2015-06-15T02:07:13.537Z,16.2
2015-06-15T02:07:32.115Z,16.2
2015-06-15T02:07:50.600Z,16.3
2015-06-15T02:08:09.537Z,16.3
2015-06-15T02:08:28.227Z,16.3
2015-06-15T02:08:46.899Z,16.3
2015-06-15T02:09:05.289Z,16.4
2015-06-15T02:09:23.777Z,16.3
2015-06-15T02:09:42.324Z,16.3
2015-06-15T02:10:00.980Z,16.4
2015-06-15T02:10:19.495Z,16.4
2015-06-15T02:10:38.107Z,16.4
2015-06-15T02:10:56.544Z,16.3
2015-06-15T02:11:14.982Z,16.3
2015-06-15T02:11:33.437Z,16.3
2015-06-15T02:11:51.828Z,16.3
2015-06-15T02:12:10.281Z,16.3
2015-06-15T02:12:28.703Z,16.3
2015-06-15T02:12:47.268Z,16.2
2015-06-15T02:13:05.893Z,16.3
2015-06-15T02:13:23.768Z,16.3
2015-06-15T02:13:42.162Z,16.4
2015-06-15T02:14:00.599Z,16.3
2015-06-15T02:14:22.990Z,16.3
2015-06-15T02:14:41.396Z,16.3
2015-06-15T02:14:59.804Z,16.3
2015-06-15T02:15:18.586Z,16.4
2015-06-15T02:15:37.117Z,16.5
2015-06-15T02:15:55.822Z,16.6
2015-06-15T02:16:14.353Z,16.6
2015-06-15T02:16:32.197Z,16.9
2015-06-15T02:16:50.591Z,16.8
2015-06-15T02:17:08.887Z,17.1
2015-06-15T02:17:27.262Z,17.5
2015-06-15T02:17:45.559Z,17.6
2015-06-15T02:18:04.061Z,17.7
2015-06-15T02:18:22.405Z,17.9
2015-06-15T02:18:40.827Z,18.1
2015-06-15T02:18:59.283Z,18.2
2015-06-15T02:19:17.783Z,18.2
2015-06-15T02:19:35.752Z,18.3
2015-06-15T02:19:54.252Z,18.2
2015-06-15T02:20:12.566Z,18.1
2015-06-15T02:20:31.254Z,17.9
2015-06-15T02:20:49.551Z,17.9
2015-06-15T02:21:07.351Z,18.1
2015-06-15T02:21:25.757Z,18.2
2015-06-15T02:21:44.054Z,18.3
2015-06-15T02:22:02.585Z,18.3
2015-06-15T02:22:21.149Z,18.3
2015-06-15T02:22:39.524Z,18.2
2015-06-15T02:22:57.821Z,18.4
2015-06-15T02:23:16.339Z,18.1
2015-06-15T02:23:34.761Z,18.1
2015-06-15T02:23:53.276Z,18.2
2015-06-15T02:24:11.026Z,18.2
2015-06-15T02:24:29.529Z,18.2
2015-06-15T02:24:47.904Z,18.3
2015-06-15T02:25:06.201Z,18.1
2015-06-15T02:25:24.704Z,18.1
2015-06-15T02:25:43.095Z,18
2015-06-15T02:26:01.642Z,18
2015-06-15T02:26:20.048Z,18
2015-06-15T02:26:38.472Z,18.1
2015-06-15T02:26:57.003Z,17.9
2015-06-15T02:27:15.425Z,17.8
2015-06-15T02:27:33.927Z,17.8
2015-06-15T02:27:52.318Z,17.8
2015-06-15T02:28:10.740Z,17.6
2015-06-15T02:28:29.036Z,17.7
2015-06-15T02:28:47.430Z,17.6
2015-06-15T02:29:05.883Z,17.5
2015-06-15T02:29:24.289Z,17.7
2015-06-15T02:29:42.604Z,17.9
2015-06-15T02:30:01.010Z,18
2015-06-15T02:30:19.463Z,17.8
2015-06-15T02:30:37.870Z,17.6
2015-06-15T02:30:56.215Z,17.7
2015-06-15T02:31:14.606Z,17.8
2015-06-15T02:31:32.981Z,17.7
2015-06-15T02:31:51.343Z,17.8
2015-06-15T02:32:09.828Z,17.8
2015-06-15T02:32:28.265Z,17.7
2015-06-15T02:32:46.750Z,17.7
2015-06-15T02:33:05.409Z,17.9
2015-06-15T02:33:24.065Z,17.9
2015-06-15T02:33:42.549Z,17.9
2015-06-15T02:34:00.973Z,17.9
2015-06-15T02:34:19.301Z,18
2015-06-15T02:34:37.723Z,17.9
2015-06-15T02:34:55.505Z,18
2015-06-15T02:35:13.929Z,18
2015-06-15T02:35:32.226Z,18
2015-06-15T02:35:50.554Z,17.9
2015-06-15T02:36:08.978Z,18
2015-06-15T02:36:27.400Z,17.9
2015-06-15T02:36:45.760Z,17.9
2015-06-15T02:37:04.213Z,18
2015-06-15T02:37:22.638Z,17.9
2015-06-15T02:37:40.934Z,17.9
2015-06-15T02:37:59.309Z,17.9
2015-06-15T02:38:17.640Z,18
2015-06-15T02:38:35.983Z,18
2015-06-15T02:38:54.405Z,17.9
2015-06-15T02:39:12.811Z,17.9
2015-06-15T02:39:31.252Z,18
2015-06-15T02:39:49.549Z,18.1
2015-06-15T02:40:08.268Z,18
2015-06-15T02:40:26.145Z,17.9
2015-06-15T02:40:43.910Z,17.8
2015-06-15T02:41:02.535Z,17.7
2015-06-15T02:41:21.020Z,17.6
2015-06-15T02:41:39.318Z,17.5
2015-06-15T02:41:57.928Z,17.6
2015-06-15T02:42:16.287Z,17.6
2015-06-15T02:42:34.603Z,17.7
2015-06-15T02:42:52.900Z,17.6
2015-06-15T02:43:11.337Z,17.6
2015-06-15T02:43:29.743Z,17.6
2015-06-15T02:43:48.059Z,17.7
2015-06-15T02:44:06.387Z,17.6
2015-06-15T02:44:24.199Z,17.8
2015-06-15T02:44:42.623Z,17.8
2015-06-15T02:45:01.014Z,17.8
2015-06-15T02:45:19.483Z,17.8
2015-06-15T02:45:37.858Z,17.8
2015-06-15T02:45:56.189Z,17.9
2015-06-15T02:46:14.736Z,17.9
2015-06-15T02:46:33.048Z,17.9
2015-06-15T02:46:51.378Z,17.9
2015-06-15T02:47:09.769Z,17.9
2015-06-15T02:47:27.628Z,17.9
2015-06-15T02:47:46.206Z,18
2015-06-15T02:48:04.505Z,17.9
2015-06-15T02:48:22.802Z,17.8
2015-06-15T02:48:41.115Z,17.9
2015-06-15T02:48:58.961Z,17.9
2015-06-15T02:49:17.446Z,17.9
2015-06-15T02:49:35.883Z,17.8
2015-06-15T02:49:54.290Z,17.7
2015-06-15T02:50:12.713Z,17.8
2015-06-15T02:50:31.151Z,17.7
2015-06-15T02:50:49.463Z,17.6
2015-06-15T02:51:07.966Z,17.7
2015-06-15T02:51:26.498Z,17.6
2015-06-15T02:51:44.795Z,17.5
2015-06-15T02:52:03.263Z,17.4
2015-06-15T02:52:21.734Z,17.5
2015-06-15T02:52:40.031Z,17.3
2015-06-15T02:52:58.484Z,17.6
2015-06-15T02:53:16.908Z,17.6
2015-06-15T02:53:35.424Z,17.7
2015-06-15T02:53:53.877Z,17.5
2015-06-15T02:54:12.314Z,17.4
2015-06-15T02:54:30.895Z,17.3
2015-06-15T02:54:49.286Z,17.3
2015-06-15T02:55:07.755Z,17.3
2015-06-15T02:55:26.258Z,17.4
2015-06-15T02:55:44.726Z,17.4
2015-06-15T02:56:03.180Z,17.4
2015-06-15T02:56:21.586Z,17.3
2015-06-15T02:56:39.994Z,17.5
2015-06-15T02:56:58.572Z,17.4
2015-06-15T02:57:16.963Z,17.4
2015-06-15T02:57:35.325Z,17.4
2015-06-15T02:57:53.888Z,17.4
2015-06-15T02:58:12.216Z,17.4
2015-06-15T02:58:30.653Z,17.3
2015-06-15T02:58:49.124Z,17.4
2015-06-15T02:59:07.890Z,17.4
2015-06-15T02:59:26.483Z,17.5
2015-06-15T02:59:44.876Z,17.5
2015-06-15T03:00:03.329Z,17.6
2015-06-15T03:00:21.860Z,17.5
2015-06-15T03:00:40.251Z,17.6
2015-06-15T03:01:03.661Z,17.6
2015-06-15T03:01:22.177Z,17.5
2015-06-15T03:01:40.599Z,17.5
2015-06-15T03:01:59.068Z,17.6
2015-06-15T03:02:17.366Z,17.7
2015-06-15T03:02:35.835Z,17.7
2015-06-15T03:02:54.335Z,17.7
2015-06-15T03:03:12.666Z,17.5
2015-06-15T03:03:31.010Z,17.4
2015-06-15T03:03:49.369Z,17.5
2015-06-15T03:04:07.838Z,17.6
2015-06-15T03:04:26.136Z,17.6
2015-06-15T03:04:44.652Z,17.7
2015-06-15T03:05:03.058Z,17.6
2015-06-15T03:05:21.546Z,17.5
2015-06-15T03:05:39.999Z,17.3
2015-06-15T03:05:58.328Z,17.4
2015-06-15T03:06:16.624Z,17.5
2015-06-15T03:06:35.001Z,17.5
2015-06-15T03:06:53.392Z,17.6
2015-06-15T03:07:11.720Z,17.6
2015-06-15T03:07:30.113Z,17.6
2015-06-15T03:07:48.503Z,17.6
2015-06-15T03:08:06.816Z,17.5
2015-06-15T03:08:25.316Z,17.6
2015-06-15T03:08:43.741Z,17.6
2015-06-15T03:09:02.069Z,17.7
2015-06-15T03:09:20.553Z,17.6
2015-06-15T03:09:38.993Z,17.5
2015-06-15T03:09:57.290Z,17.5
2015-06-15T03:10:15.665Z,17.7
2015-06-15T03:10:33.993Z,17.8
2015-06-15T03:10:52.354Z,17.8
2015-06-15T03:11:10.745Z,17.8
2015-06-15T03:11:29.370Z,17.9
2015-06-15T03:11:47.843Z,17.9
2015-06-15T03:12:06.264Z,17.9
2015-06-15T03:12:24.811Z,18
2015-06-15T03:12:43.249Z,18
2015-06-15T03:13:01.828Z,18
2015-06-15T03:13:20.219Z,18
2015-06-15T03:13:38.500Z,17.9
2015-06-15T03:13:56.801Z,17.9
2015-06-15T03:14:15.113Z,17.9
2015-06-15T03:14:33.582Z,17.8
2015-06-15T03:14:52.051Z,17.8
2015-06-15T03:15:10.365Z,17.8
2015-06-15T03:15:28.803Z,17.8
2015-06-15T03:15:47.240Z,17.8
2015-06-15T03:16:05.570Z,17.9
2015-06-15T03:16:23.398Z,17.8
2015-06-15T03:16:41.836Z,17.7
2015-06-15T03:17:00.195Z,17.7
2015-06-15T03:17:18.948Z,17.7
2015-06-15T03:17:37.323Z,17.8
2015-06-15T03:17:55.839Z,17.9
2015-06-15T03:18:14.170Z,17.9
2015-06-15T03:18:32.717Z,17.8
2015-06-15T03:18:51.108Z,17.8
2015-06-15T03:19:09.404Z,17.7
2015-06-15T03:19:27.405Z,17.6
2015-06-15T03:19:45.702Z,17.7
2015-06-15T03:20:04.030Z,17.7
2015-06-15T03:20:22.424Z,17.6
2015-06-15T03:20:40.705Z,17.6
2015-06-15T03:20:59.080Z,17.6
2015-06-15T03:21:17.580Z,17.6
2015-06-15T03:21:36.129Z,17.5
2015-06-15T03:21:54.442Z,17.4
2015-06-15T03:22:12.770Z,17.3
2015-06-15T03:22:31.070Z,17.2
2015-06-15T03:22:49.445Z,17.3
2015-06-15T03:23:07.913Z,17.2
2015-06-15T03:23:26.445Z,17.3
2015-06-15T03:23:44.915Z,17.3
2015-06-15T03:24:03.353Z,17.3
2015-06-15T03:24:21.650Z,17.3
2015-06-15T03:24:39.450Z,17.3
2015-06-15T03:24:57.747Z,17.5
2015-06-15T03:25:16.090Z,17.5
2015-06-15T03:25:34.450Z,17.4
2015-06-15T03:25:52.734Z,17.3
2015-06-15T03:26:11.031Z,17.3
2015-06-15T03:26:29.421Z,17.3
2015-06-15T03:26:47.830Z,17.2
2015-06-15T03:27:06.267Z,17.2
2015-06-15T03:27:24.564Z,17.3
2015-06-15T03:27:43.048Z,17.4
2015-06-15T03:28:01.394Z,17.4
2015-06-15T03:28:19.160Z,17.5
2015-06-15T03:28:37.457Z,17.5
2015-06-15T03:28:55.882Z,17.5
2015-06-15T03:29:14.178Z,17.5
2015-06-15T03:29:32.585Z,17.4
2015-06-15T03:29:50.975Z,17.4
2015-06-15T03:30:08.774Z,17.4
2015-06-15T03:30:27.149Z,17.4
2015-06-15T03:30:45.477Z,17.4
2015-06-15T03:31:03.917Z,17.6
2015-06-15T03:31:22.245Z,17.6
2015-06-15T03:31:40.792Z,17.6
2015-06-15T03:31:59.089Z,17.6
2015-06-15T03:32:17.592Z,17.6
2015-06-15T03:32:35.904Z,17.7
2015-06-15T03:32:54.201Z,17.5
2015-06-15T03:33:12.938Z,17.4
2015-06-15T03:33:31.579Z,17.5
2015-06-15T03:33:50.220Z,17.6
2015-06-15T03:34:08.548Z,17.7
2015-06-15T03:34:26.909Z,17.7
2015-06-15T03:34:45.425Z,17.5
2015-06-15T03:35:03.737Z,17.6
2015-06-15T03:35:22.333Z,17.6
2015-06-15T03:35:40.630Z,17.6
2015-06-15T03:35:58.958Z,17.7
2015-06-15T03:36:17.427Z,17.7
2015-06-15T03:36:35.805Z,17.7
2015-06-15T03:36:54.086Z,17.7
2015-06-15T03:37:12.555Z,17.7
2015-06-15T03:37:30.870Z,17.8
2015-06-15T03:37:49.167Z,17.7
2015-06-15T03:38:07.558Z,17.7
2015-06-15T03:38:26.089Z,17.6
2015-06-15T03:38:44.529Z,17.6
2015-06-15T03:39:02.825Z,17.7
2015-06-15T03:39:21.216Z,17.8
2015-06-15T03:39:39.515Z,17.8
2015-06-15T03:39:57.937Z,17.8
2015-06-15T03:40:16.374Z,17.8
2015-06-15T03:40:34.952Z,17.7
2015-06-15T03:40:53.268Z,17.7
2015-06-15T03:41:11.705Z,17.7
2015-06-15T03:41:30.159Z,17.7
2015-06-15T03:41:48.537Z,17.6
2015-06-15T03:42:07.005Z,17.6
2015-06-15T03:42:25.396Z,17.6
2015-06-15T03:42:43.958Z,17.5
2015-06-15T03:43:02.273Z,17.5
2015-06-15T03:43:20.242Z,17.6
2015-06-15T03:43:38.679Z,17.6
2015-06-15T03:43:57.275Z,17.6
2015-06-15T03:44:15.712Z,17.6
2015-06-15T03:44:34.009Z,17.5
2015-06-15T03:44:52.306Z,17.4
2015-06-15T03:45:10.809Z,17.4
2015-06-15T03:45:29.169Z,17.3
2015-06-15T03:45:49.122Z,17.4
2015-06-15T03:46:07.608Z,17.4
2015-06-15T03:46:25.921Z,17.3
2015-06-15T03:46:43.889Z,17.2
2015-06-15T03:47:02.264Z,17.2
2015-06-15T03:47:20.704Z,17.2
2015-06-15T03:47:39.141Z,17.2
2015-06-15T03:47:56.923Z,17.2
2015-06-15T03:48:15.223Z,17.2
2015-06-15T03:48:33.067Z,17.3
2015-06-15T03:48:51.364Z,17.4
2015-06-15T03:49:09.645Z,17.4
2015-06-15T03:49:28.163Z,17.3
2015-06-15T03:49:46.460Z,17.3
2015-06-15T03:50:04.741Z,17.4
2015-06-15T03:50:23.135Z,17.5
2015-06-15T03:50:41.416Z,17.4
2015-06-15T03:50:59.838Z,17.4
2015-06-15T03:51:18.166Z,17.4
2015-06-15T03:51:36.793Z,17.5
2015-06-15T03:51:55.105Z,17.5
2015-06-15T03:52:13.574Z,17.4
2015-06-15T03:52:31.904Z,17.4
2015-06-15T03:52:50.326Z,17.4
2015-06-15T03:53:09.029Z,17.4
2015-06-15T03:53:27.311Z,17.4
2015-06-15T03:53:45.594Z,17.4
2015-06-15T03:54:04.016Z,17.4
2015-06-15T03:54:22.328Z,17.5
2015-06-15T03:54:40.769Z,17.3
2015-06-15T03:54:59.144Z,17.5
2015-06-15T03:55:17.503Z,17.5
2015-06-15T03:55:35.862Z,17.6
2015-06-15T03:55:54.303Z,17.6
2015-06-15T03:56:12.678Z,17.7
2015-06-15T03:56:30.975Z,17.6
2015-06-15T03:56:49.508Z,17.6
2015-06-15T03:57:08.024Z,17.6
2015-06-15T03:57:26.352Z,17.6
2015-06-15T03:57:44.852Z,17.6
2015-06-15T03:58:03.355Z,17.7
2015-06-15T03:58:21.777Z,17.8
2015-06-15T03:58:40.277Z,17.8
2015-06-15T03:58:58.638Z,17.8
2015-06-15T03:59:17.154Z,17.8
2015-06-15T03:59:35.466Z,17.8
2015-06-15T03:59:54.044Z,17.8
2015-06-15T04:00:12.374Z,17.7
2015-06-15T04:00:30.999Z,17.7
2015-06-15T04:00:49.406Z,17.7
2015-06-15T04:01:08.049Z,17.7
2015-06-15T04:01:26.581Z,17.6
2015-06-15T04:01:44.924Z,17.6
2015-06-15T04:02:03.237Z,17.5
2015-06-15T04:02:21.817Z,17.6
2015-06-15T04:02:40.161Z,17.7
2015-06-15T04:02:58.520Z,17.7
2015-06-15T04:03:16.929Z,17.6
2015-06-15T04:03:35.367Z,17.6
2015-06-15T04:03:53.929Z,17.6
2015-06-15T04:04:12.351Z,17.7
2015-06-15T04:04:30.838Z,17.7
2015-06-15T04:04:49.088Z,17.8
2015-06-15T04:05:07.791Z,17.7
2015-06-15T04:05:26.294Z,17.8
2015-06-15T04:05:44.794Z,17.8
2015-06-15T04:06:03.216Z,17.7
2015-06-15T04:06:21.544Z,17.7